Time;durP1;ratioP1;P1;durP2;ratioP2;P2;SDS_P1;SDS_P2;PMS_P1;PMS_P2;Temp;Humidity;BMP_temperature;BMP_pressure;BME280_temperature;BME280_humidity;BME280_pressure;Samples;Min_cycle;Max_cycle;Signal;HPM_P1;HPM_P2
2022/05/28 00:00:25;;;;;;;1.73;1.60;;;;;;;13.08;82.17;97729.50;6181957;28;20236;-42
2022/05/28 00:03:28;;;;;;;2.33;2.10;;;;;;;13.11;81.86;97732.72;6180091;28;20258;-42
2022/05/28 00:06:32;;;;;;;2.00;1.37;;;;;;;13.13;81.82;97727.28;6171449;28;20239;-42
2022/05/28 00:09:34;;;;;;;3.27;2.00;;;;;;;13.18;81.82;97740.97;6178063;28;20348;-45
2022/05/28 00:12:36;;;;;;;2.20;1.70;;;;;;;13.11;82.46;97735.38;6181872;28;20300;-42
2022/05/28 00:15:41;;;;;;;2.80;1.50;;;;;;;13.06;82.50;97726.16;6180673;28;20713;-41
2022/05/28 00:18:44;;;;;;;1.73;1.40;;;;;;;13.02;81.60;97716.81;6170483;28;20238;-42
2022/05/28 00:21:46;;;;;;;1.60;1.40;;;;;;;13.01;81.87;97718.63;6173373;28;20232;-42
2022/05/28 00:24:48;;;;;;;1.90;1.50;;;;;;;13.01;81.99;97715.97;6179462;28;20588;-42
2022/05/28 00:27:50;;;;;;;1.60;1.50;;;;;;;13.00;81.87;97711.63;6179377;28;20245;-42
2022/05/28 00:30:52;;;;;;;1.93;1.20;;;;;;;13.03;82.03;97713.19;6181907;28;20315;-42
2022/05/28 00:33:55;;;;;;;2.40;1.30;;;;;;;12.94;82.23;97720.16;6180055;28;20240;-42
2022/05/28 00:36:57;;;;;;;2.60;1.80;;;;;;;12.94;82.17;97712.22;6178004;28;20253;-41
2022/05/28 00:40:01;;;;;;;1.87;1.50;;;;;;;12.88;82.04;97713.56;6179015;28;20331;-42
2022/05/28 00:43:05;;;;;;;1.40;1.30;;;;;;;12.92;81.93;97719.44;6166851;28;20323;-42
2022/05/28 00:46:12;;;;;;;2.47;1.83;;;;;;;12.92;81.90;97708.84;6177559;28;20240;-43
2022/05/28 00:49:22;;;;;;;1.77;1.67;;;;;;;12.85;81.59;97711.22;6179650;28;20312;-43
2022/05/28 00:52:27;;;;;;;1.30;1.20;;;;;;;12.89;81.04;97707.31;6180876;28;20233;-42
2022/05/28 00:55:32;;;;;;;1.33;1.23;;;;;;;12.91;80.98;97705.34;6176619;28;20738;-41
2022/05/28 00:58:34;;;;;;;1.90;1.23;;;;;;;12.90;81.54;97705.50;6179962;28;20791;-43
2022/05/28 01:01:58;;;;;;;2.50;1.40;;;;;;;12.87;81.89;97692.53;6176583;28;20241;-42
2022/05/28 01:05:31;;;;;;;2.00;1.80;;;;;;;12.83;81.71;97688.47;6172956;28;20237;-45
2022/05/28 01:09:29;;;;;;;1.63;1.50;;;;;;;12.85;82.09;97681.25;6177804;28;20318;-42
2022/05/28 01:12:57;;;;;;;1.73;1.50;;;;;;;12.82;82.08;97679.69;6112670;28;20225;-43
2022/05/28 01:16:06;;;;;;;1.63;1.50;;;;;;;12.82;81.83;97677.06;6177387;28;20680;-42
2022/05/28 01:19:45;;;;;;;2.17;1.63;;;;;;;12.87;81.65;97677.50;6174220;28;20310;-42
2022/05/28 01:23:16;;;;;;;2.10;1.80;;;;;;;12.87;81.05;97680.13;6178060;28;20234;-42
2022/05/28 01:26:42;;;;;;;1.77;1.60;;;;;;;12.89;80.46;97679.97;6178337;28;20225;-44
2022/05/28 01:29:50;;;;;;;2.53;2.10;;;;;;;12.88;79.98;97676.50;6179799;28;20294;-42
2022/05/28 01:32:56;;;;;;;1.70;1.40;;;;;;;12.94;80.05;97672.47;6178359;28;20268;-43
2022/05/28 01:35:59;;;;;;;4.80;2.23;;;;;;;12.96;80.09;97670.53;6181909;28;20575;-42
2022/05/28 01:39:02;;;;;;;2.53;1.50;;;;;;;12.93;80.38;97668.97;6178560;28;20290;-42
2022/05/28 01:42:07;;;;;;;2.13;1.60;;;;;;;12.98;80.68;97655.31;6179386;28;20287;-42
2022/05/28 01:45:12;;;;;;;1.40;1.30;;;;;;;12.98;80.50;97662.44;6177400;28;20241;-42
2022/05/28 01:48:18;;;;;;;1.70;1.60;;;;;;;12.92;80.87;97651.41;6181764;28;20719;-43
2022/05/28 01:51:24;;;;;;;1.40;1.30;;;;;;;12.92;81.09;97656.72;6178154;28;20260;-43
2022/05/28 01:54:35;;;;;;;2.43;1.80;;;;;;;12.91;80.70;97656.84;6176731;28;20231;-43
2022/05/28 01:57:38;;;;;;;1.97;1.80;;;;;;;12.95;80.58;97650.31;6179853;28;20249;-45
2022/05/28 02:00:40;;;;;;;3.03;1.50;;;;;;;12.99;80.60;97643.72;6180275;28;20232;-43
2022/05/28 02:03:46;;;;;;;1.67;1.50;;;;;;;13.01;80.87;97631.19;6180566;28;20302;-44
2022/05/28 02:06:49;;;;;;;2.10;1.63;;;;;;;12.97;80.94;97637.75;6175783;28;20247;-44
2022/05/28 02:09:57;;;;;;;2.17;1.70;;;;;;;12.97;80.30;97626.31;6178756;28;20272;-42
2022/05/28 02:13:23;;;;;;;1.57;1.47;;;;;;;12.97;81.01;97640.41;6180712;28;20241;-41
2022/05/28 02:16:49;;;;;;;2.20;2.00;;;;;;;12.92;80.48;97635.50;6178485;28;20233;-42
2022/05/28 02:20:17;;;;;;;2.63;1.70;;;;;;;12.96;79.70;97619.34;6181514;28;20235;-42
2022/05/28 02:23:45;;;;;;;1.50;1.40;;;;;;;13.02;79.53;97616.97;6177150;28;20620;-41
2022/05/28 02:26:53;;;;;;;1.33;1.20;;;;;;;12.97;80.16;97621.88;6175437;28;20439;-42
2022/05/28 02:29:55;;;;;;;2.50;1.80;;;;;;;12.93;79.60;97607.22;6179550;28;20361;-42
2022/05/28 02:33:05;;;;;;;1.57;1.47;;;;;;;12.98;79.63;97612.13;6177815;28;20247;-43
2022/05/28 02:36:08;;;;;;;1.57;1.43;;;;;;;12.97;80.00;97615.72;6178217;28;20693;-44
2022/05/28 02:39:10;;;;;;;2.07;1.80;;;;;;;12.94;80.77;97611.53;6177874;28;20807;-43
2022/05/28 02:42:13;;;;;;;2.60;1.90;;;;;;;12.93;80.88;97605.41;6183291;28;20224;-42
2022/05/28 02:45:16;;;;;;;2.63;1.70;;;;;;;12.91;80.84;97611.81;6179049;28;20292;-42
2022/05/28 02:48:18;;;;;;;1.97;1.80;;;;;;;12.90;80.45;97597.72;6181443;28;20229;-42
2022/05/28 02:51:22;;;;;;;2.17;1.90;;;;;;;12.96;80.75;97603.47;6184688;28;20307;-43
2022/05/28 02:54:25;;;;;;;1.90;1.80;;;;;;;12.97;80.63;97605.13;6181271;28;20829;-44
2022/05/28 02:57:27;;;;;;;2.17;1.90;;;;;;;13.01;79.81;97596.75;6182448;28;20614;-43
2022/05/28 03:00:29;;;;;;;1.93;1.70;;;;;;;13.04;80.28;97600.94;6181428;28;20254;-43
2022/05/28 03:03:32;;;;;;;3.90;1.97;;;;;;;13.07;80.18;97601.50;6183654;28;20249;-42
2022/05/28 03:06:37;;;;;;;2.10;1.90;;;;;;;13.06;80.50;97597.19;6182599;28;20708;-43
2022/05/28 03:09:40;;;;;;;1.90;1.60;;;;;;;13.06;79.88;97599.00;6183114;28;20237;-43
2022/05/28 03:12:42;;;;;;;2.83;1.90;;;;;;;13.05;79.55;97610.56;6182188;28;20233;-43
2022/05/28 03:15:45;;;;;;;2.10;1.90;;;;;;;13.03;78.51;97605.41;6183358;28;20639;-42
2022/05/28 03:18:47;;;;;;;2.40;2.17;;;;;;;13.00;78.87;97599.53;6182218;28;20260;-44
2022/05/28 03:21:49;;;;;;;2.80;1.93;;;;;;;12.95;78.63;97605.28;6181846;28;20233;-43
2022/05/28 03:24:52;;;;;;;2.67;1.77;;;;;;;12.89;78.77;97614.59;6182469;28;20233;-43
2022/05/28 03:27:54;;;;;;;1.80;1.70;;;;;;;12.82;77.58;97620.59;6180353;28;20290;-44
2022/05/28 03:30:56;;;;;;;2.40;2.20;;;;;;;12.79;77.80;97626.16;6180796;28;20713;-42
2022/05/28 03:33:59;;;;;;;2.87;1.83;;;;;;;12.77;77.51;97607.78;6181699;28;20237;-43
2022/05/28 03:37:01;;;;;;;2.20;2.00;;;;;;;12.70;76.60;97608.44;6180826;28;20262;-47
2022/05/28 03:40:05;;;;;;;3.40;1.57;;;;;;;12.69;76.90;97610.25;6180125;28;20240;-44
2022/05/28 03:43:07;;;;;;;2.63;2.27;;;;;;;12.66;77.23;97613.19;6182143;28;20266;-44
2022/05/28 03:46:25;;;;;;;2.67;2.20;;;;;;;12.64;76.69;97617.78;6182685;28;20326;-45
2022/05/28 03:49:36;;;;;;;6.27;2.10;;;;;;;12.60;76.60;97623.50;6181436;28;20724;-43
2022/05/28 03:52:38;;;;;;;2.67;2.17;;;;;;;12.53;76.14;97617.91;6168817;28;20708;-43
2022/05/28 03:55:40;;;;;;;3.13;2.13;;;;;;;12.45;76.39;97620.41;6181898;28;20252;-43
2022/05/28 03:58:43;;;;;;;2.07;1.77;;;;;;;12.39;76.21;97624.41;6178728;28;20277;-46
2022/05/28 04:01:48;;;;;;;2.87;1.73;;;;;;;12.42;76.22;97624.16;6183726;28;20227;-44
2022/05/28 04:04:51;;;;;;;2.17;1.80;;;;;;;12.41;75.70;97622.47;6179365;28;20233;-43
2022/05/28 04:07:53;;;;;;;2.20;1.90;;;;;;;12.42;75.83;97629.44;6179725;28;20239;-42
2022/05/28 04:10:55;;;;;;;2.13;1.80;;;;;;;12.43;75.94;97632.94;6182989;28;20236;-43
2022/05/28 04:13:58;;;;;;;4.00;1.60;;;;;;;12.47;75.82;97629.06;6180156;28;20236;-45
2022/05/28 04:17:00;;;;;;;2.73;2.00;;;;;;;12.51;75.67;97630.44;6179730;28;20236;-45
2022/05/28 04:20:04;;;;;;;1.77;1.50;;;;;;;12.54;75.77;97627.53;6167652;28;20232;-42
2022/05/28 04:23:07;;;;;;;3.70;1.77;;;;;;;12.58;75.28;97643.00;6180313;28;20255;-42
2022/05/28 04:26:09;;;;;;;2.47;1.83;;;;;;;12.52;73.90;97640.91;6179867;28;20266;-42
2022/05/28 04:29:12;;;;;;;2.50;1.60;;;;;;;12.52;74.46;97645.34;6181000;28;20344;-42
2022/05/28 04:32:14;;;;;;;3.27;1.83;;;;;;;12.53;74.82;97634.63;6167235;28;20717;-42
2022/05/28 04:35:17;;;;;;;2.30;1.60;;;;;;;12.53;75.01;97637.28;6179822;28;20576;-41
2022/05/28 04:38:19;;;;;;;2.10;1.77;;;;;;;12.57;74.58;97649.28;6179721;28;20753;-43
2022/05/28 04:41:21;;;;;;;1.80;1.50;;;;;;;12.61;74.98;97641.88;6181109;28;20243;-42
2022/05/28 04:44:24;;;;;;;2.57;1.60;;;;;;;12.66;74.87;97646.78;6177370;28;20247;-42
2022/05/28 04:47:27;;;;;;;1.90;1.40;;;;;;;12.66;74.57;97654.72;6169583;28;20236;-41
2022/05/28 04:50:29;;;;;;;3.50;1.83;;;;;;;12.60;74.28;97649.97;6178515;28;20279;-43
2022/05/28 04:53:32;;;;;;;4.00;2.17;;;;;;;12.64;74.20;97646.91;6176792;28;20237;-42
2022/05/28 04:56:34;;;;;;;2.00;1.80;;;;;;;12.63;73.20;97647.06;6176003;28;20225;-42
2022/05/28 04:59:36;;;;;;;3.73;2.10;;;;;;;12.72;73.81;97638.28;6174568;28;20239;-41
2022/05/28 05:02:39;;;;;;;3.50;1.90;;;;;;;12.71;73.52;97649.84;6171065;28;20313;-42
2022/05/28 05:05:41;;;;;;;5.13;1.93;;;;;;;12.77;73.98;97649.31;6172830;28;20244;-43
2022/05/28 05:08:44;;;;;;;5.37;2.40;;;;;;;12.94;74.00;97661.88;6177227;28;20279;-41
2022/05/28 05:11:47;;;;;;;3.43;1.70;;;;;;;12.90;73.22;97663.13;6168491;28;20221;-41
2022/05/28 05:14:49;;;;;;;3.70;1.77;;;;;;;12.90;73.51;97671.06;6178068;28;20232;-42
2022/05/28 05:17:51;;;;;;;2.40;2.00;;;;;;;12.86;73.43;97659.91;6176931;28;20301;-43
2022/05/28 05:20:53;;;;;;;3.63;1.70;;;;;;;12.88;73.04;97665.06;6178133;28;20250;-44
2022/05/28 05:23:56;;;;;;;4.70;1.80;;;;;;;12.92;72.70;97662.00;6177998;28;20230;-44
2022/05/28 05:26:58;;;;;;;3.20;1.50;;;;;;;13.11;72.94;97666.47;6178506;28;20726;-42
2022/05/28 05:30:01;;;;;;;2.27;1.50;;;;;;;13.15;72.58;97664.44;6176860;28;20521;-42
2022/05/28 05:33:03;;;;;;;1.97;1.60;;;;;;;13.18;72.38;97659.66;6177470;28;20605;-43
2022/05/28 05:36:05;;;;;;;2.13;1.93;;;;;;;13.31;72.60;97662.03;6172496;28;20727;-43
2022/05/28 05:39:08;;;;;;;2.70;1.70;;;;;;;13.38;72.75;97654.34;6176282;28;20698;-42
2022/05/28 05:42:10;;;;;;;1.77;1.50;;;;;;;13.48;73.11;97657.81;6175579;28;20263;-42
2022/05/28 05:45:13;;;;;;;1.67;1.57;;;;;;;13.57;73.05;97657.84;6178499;28;20236;-42
2022/05/28 05:48:15;;;;;;;2.27;2.07;;;;;;;13.52;72.89;97668.03;6174808;28;20250;-42
2022/05/28 05:51:17;;;;;;;3.67;2.00;;;;;;;13.59;73.38;97657.66;6170914;28;20573;-44
2022/05/28 05:54:19;;;;;;;4.20;2.00;;;;;;;13.76;73.16;97650.81;6172280;28;20241;-43
2022/05/28 05:57:22;;;;;;;1.60;1.50;;;;;;;13.83;73.02;97659.88;6175413;28;20232;-42
2022/05/28 06:00:25;;;;;;;4.23;2.00;;;;;;;13.81;72.88;97660.00;6175749;28;20235;-42
2022/05/28 06:03:27;;;;;;;4.33;1.83;;;;;;;14.03;72.91;97656.16;6173440;28;20228;-43
2022/05/28 06:06:30;;;;;;;2.20;1.67;;;;;;;14.29;72.46;97654.50;6177269;28;20451;-42
2022/05/28 06:09:32;;;;;;;4.63;1.83;;;;;;;14.53;71.65;97635.44;6175986;28;20570;-42
2022/05/28 06:12:35;;;;;;;2.00;1.50;;;;;;;14.83;71.09;97636.06;6162153;28;20237;-42
2022/05/28 06:15:37;;;;;;;2.17;1.90;;;;;;;14.88;70.24;97628.47;6171528;28;20229;-42
2022/05/28 06:18:39;;;;;;;2.37;1.70;;;;;;;14.87;70.14;97629.47;6179207;28;20695;-42
2022/05/28 06:21:41;;;;;;;3.33;2.10;;;;;;;14.69;70.28;97629.44;6185534;28;20228;-43
2022/05/28 06:24:44;;;;;;;2.00;1.60;;;;;;;14.59;71.19;97621.53;6181287;28;20229;-43
2022/05/28 06:27:49;;;;;;;3.47;2.20;;;;;;;14.45;71.76;97637.16;6174703;28;20237;-44
2022/05/28 06:30:51;;;;;;;2.47;2.27;;;;;;;14.29;71.93;97624.47;6178361;28;20260;-45
2022/05/28 06:33:53;;;;;;;3.47;2.00;;;;;;;14.26;72.53;97630.94;6179362;28;20232;-43
2022/05/28 06:36:56;;;;;;;2.93;1.97;;;;;;;14.30;72.80;97619.03;6176930;28;20224;-42
2022/05/28 06:39:58;;;;;;;3.27;2.43;;;;;;;14.33;72.95;97615.25;6178724;28;20236;-42
2022/05/28 06:43:01;;;;;;;5.30;3.07;;;;;;;14.11;71.42;97624.44;6175026;28;20225;-47
2022/05/28 06:46:05;;;;;;;4.40;3.03;;;;;;;13.97;71.91;97635.53;6174670;28;20232;-43
2022/05/28 06:49:08;;;;;;;4.47;3.03;;;;;;;13.96;72.28;97641.81;6179857;28;20673;-42
2022/05/28 06:52:10;;;;;;;5.60;2.87;;;;;;;13.99;71.33;97630.88;6180084;28;20280;-42
2022/05/28 06:55:13;;;;;;;2.70;2.43;;;;;;;13.98;70.00;97624.75;6180795;28;20225;-43
2022/05/28 06:58:15;;;;;;;3.93;2.90;;;;;;;14.03;69.27;97630.47;6180548;28;20279;-42
2022/05/28 07:01:18;;;;;;;2.87;2.50;;;;;;;14.31;68.94;97626.00;6178597;28;20229;-43
2022/05/28 07:04:20;;;;;;;4.80;2.20;;;;;;;14.76;67.60;97623.41;6166872;28;20233;-44
2022/05/28 07:07:22;;;;;;;3.43;1.80;;;;;;;14.83;67.32;97625.44;6161741;28;20307;-42
2022/05/28 07:10:25;;;;;;;3.30;2.20;;;;;;;14.82;67.37;97610.47;6170738;28;20771;-45
2022/05/28 07:13:29;;;;;;;2.90;2.30;;;;;;;14.84;67.13;97604.03;6177094;28;20225;-43
2022/05/28 07:16:31;;;;;;;2.77;2.47;;;;;;;14.84;67.25;97595.22;6181369;28;20344;-45
2022/05/28 07:19:33;;;;;;;3.20;2.43;;;;;;;15.08;67.11;97598.09;6171765;28;20225;-47
2022/05/28 07:22:36;;;;;;;2.00;1.90;;;;;;;15.48;65.71;97593.09;6178001;28;20265;-45
2022/05/28 07:25:42;;;;;;;2.80;2.13;;;;;;;15.61;65.28;97602.53;6171210;28;20665;-45
2022/05/28 07:28:45;;;;;;;2.90;2.20;;;;;;;15.72;64.99;97591.63;6168394;28;20233;-44
2022/05/28 07:31:48;;;;;;;3.40;2.10;;;;;;;15.69;65.15;97582.13;6175623;28;20268;-45
2022/05/28 07:34:51;;;;;;;3.00;2.10;;;;;;;15.67;64.97;97583.28;6177324;28;20600;-48
2022/05/28 07:37:53;;;;;;;4.03;2.67;;;;;;;15.81;65.52;97580.84;6178263;28;20722;-46
2022/05/28 07:40:56;;;;;;;1.80;1.70;;;;;;;16.18;65.11;97569.88;6175546;28;20701;-47
2022/05/28 07:43:58;;;;;;;2.10;1.83;;;;;;;16.41;64.10;97587.94;6181187;28;20295;-44
2022/05/28 07:47:08;;;;;;;4.20;1.90;;;;;;;16.01;66.37;97624.06;6177311;28;20665;-44
2022/05/28 07:50:10;;;;;;;6.90;2.47;;;;;;;15.16;67.72;97653.19;6178216;28;20268;-44
2022/05/28 07:53:13;;;;;;;9.80;2.87;;;;;;;14.11;70.07;97647.47;6178190;28;20225;-49
2022/05/28 07:56:16;;;;;;;6.37;2.60;;;;;;;13.60;71.08;97660.19;6180260;28;20742;-43
2022/05/28 07:59:20;;;;;;;6.37;2.30;;;;;;;13.59;71.82;97662.97;6177877;28;20236;-47
2022/05/28 08:02:25;;;;;;;6.70;2.33;;;;;;;13.92;71.57;97653.69;6177425;28;20225;-44
2022/05/28 08:05:29;;;;;;;5.00;2.40;;;;;;;14.30;70.48;97664.16;6178850;28;20221;-44
2022/05/28 08:08:32;;;;;;;6.17;2.00;;;;;;;13.98;72.14;97672.50;6180471;28;20241;-45
2022/05/28 08:11:36;;;;;;;5.43;2.00;;;;;;;13.82;72.66;97682.06;6180428;28;20794;-44
2022/05/28 08:14:42;;;;;;;6.23;2.47;;;;;;;13.77;72.87;97663.94;6178647;28;20592;-46
2022/05/28 08:17:46;;;;;;;4.63;2.40;;;;;;;13.54;73.61;97659.94;6178731;28;20375;-45
2022/05/28 08:24:14;;;;;;;5.00;2.47;;;;;;;13.65;73.78;97665.06;6168681;28;20311;-45
2022/05/28 08:27:18;;;;;;;5.27;2.43;;;;;;;14.09;73.50;97668.84;6182957;28;20237;-43
2022/05/28 08:30:22;;;;;;;4.23;2.20;;;;;;;15.12;72.88;97671.25;6180083;28;20237;-44
2022/05/28 08:33:26;;;;;;;3.60;2.13;;;;;;;16.22;69.67;97660.94;6178113;28;20240;-44
2022/05/28 08:36:30;;;;;;;5.10;1.83;;;;;;;16.58;69.00;97666.91;6177483;28;20221;-47
2022/05/28 08:39:33;;;;;;;4.10;2.10;;;;;;;16.63;68.91;97666.47;6177436;28;20228;-46
2022/05/28 08:42:37;;;;;;;3.73;1.93;;;;;;;16.86;66.89;97671.06;6180245;28;20259;-45
2022/05/28 08:45:39;;;;;;;3.83;2.10;;;;;;;17.05;66.06;97664.59;6181505;28;20247;-45
2022/05/28 08:48:48;;;;;;;2.63;1.87;;;;;;;17.40;66.39;97665.28;6178539;28;20323;-46
2022/05/28 08:52:35;;;;;;;4.83;2.33;;;;;;;17.17;65.25;97662.44;6177681;28;20248;-45
2022/05/28 08:55:43;;;;;;;3.47;1.97;;;;;;;17.47;65.76;97658.31;6161156;28;20335;-44
2022/05/28 08:58:48;;;;;;;3.77;2.00;;;;;;;18.02;63.53;97653.09;6158047;28;20320;-44
2022/05/28 10:01:58;;;;;;;2.77;1.47;;;;;;;20.64;49.21;97623.22;4960369;28;22509;-42
2022/05/28 10:05:13;;;;;;;3.77;1.60;;;;;;;20.11;51.42;97619.81;6177359;28;20363;-45
2022/05/28 10:08:15;;;;;;;5.37;1.70;;;;;;;19.84;53.09;97620.44;6182059;28;20237;-43
2022/05/28 10:11:22;;;;;;;6.03;1.97;;;;;;;19.78;54.19;97607.75;6184323;28;20309;-44
2022/05/28 10:14:30;;;;;;;2.70;1.60;;;;;;;19.84;55.07;97602.53;6182992;28;20237;-44
2022/05/28 10:17:33;;;;;;;5.10;2.03;;;;;;;20.00;52.43;97603.34;6179777;28;20256;-44
2022/05/28 10:20:36;;;;;;;4.90;2.10;;;;;;;19.79;52.04;97602.22;6183291;28;20224;-41
2022/05/28 10:23:43;;;;;;;5.93;1.97;;;;;;;19.31;51.43;97608.00;6182612;28;20580;-41
2022/05/28 10:26:50;;;;;;;3.03;1.37;;;;;;;19.57;52.00;97607.63;6182486;28;20324;-42
2022/05/28 10:29:53;;;;;;;3.20;1.60;;;;;;;20.43;48.99;97605.22;6184531;28;20245;-41
2022/05/28 10:32:55;;;;;;;6.23;1.53;;;;;;;21.31;45.53;97606.84;6172702;28;20277;-41
2022/05/28 10:36:10;;;;;;;4.17;1.37;;;;;;;21.62;43.24;97593.91;6180843;28;20248;-42
2022/05/28 10:39:17;;;;;;;4.33;1.33;;;;;;;21.78;42.57;97581.19;6181284;28;20221;-42
2022/05/28 10:42:20;;;;;;;2.70;1.30;;;;;;;21.73;44.45;97588.00;6181004;28;20221;-42
2022/05/28 10:45:32;;;;;;;2.67;1.33;;;;;;;21.38;44.66;97596.16;6181015;28;20684;-41
2022/05/28 10:48:49;;;;;;;4.33;1.40;;;;;;;21.54;44.65;97585.16;6177556;28;20335;-42
2022/05/28 10:52:12;;;;;;;2.73;1.47;;;;;;;22.43;42.65;97573.53;6178926;28;20405;-43
2022/05/28 10:55:23;;;;;;;2.70;1.17;;;;;;;22.37;43.61;97573.50;6181615;28;20237;-42
2022/05/28 10:58:41;;;;;;;3.90;1.20;;;;;;;21.88;43.59;97571.75;6183899;28;20241;-44
2022/05/28 11:02:05;;;;;;;3.63;1.47;;;;;;;21.34;41.78;97574.25;6176080;28;20236;-42
2022/05/28 11:05:29;;;;;;;5.17;1.60;;;;;;;21.32;45.00;97566.38;6159360;28;20222;-43
2022/05/28 11:08:42;;;;;;;3.50;1.40;;;;;;;22.41;43.43;97580.97;6148274;28;20600;-41
2022/05/28 11:12:03;;;;;;;3.10;0.90;;;;;;;23.14;38.14;97568.59;6155604;28;20644;-41
2022/05/28 11:15:44;;;;;;;2.57;1.00;;;;;;;23.23;34.54;97571.09;6180816;28;20233;-42
2022/05/28 11:19:09;;;;;;;3.83;1.30;;;;;;;23.29;34.84;97575.63;6182956;28;20245;-42
2022/05/28 11:22:27;;;;;;;3.23;1.10;;;;;;;22.76;35.20;97570.16;6174644;28;20229;-44
2022/05/28 11:25:49;;;;;;;4.67;1.50;;;;;;;21.89;34.75;97567.19;6180487;28;20236;-42
2022/05/28 11:29:17;;;;;;;3.20;1.50;;;;;;;21.32;39.59;97554.81;6180600;28;20229;-42
2022/05/28 11:32:30;;;;;;;4.07;1.40;;;;;;;21.19;38.07;97568.94;6180742;28;20237;-43
2022/05/28 11:35:39;;;;;;;4.83;1.40;;;;;;;20.20;40.93;97575.81;6183249;28;20637;-42
2022/05/28 11:38:47;;;;;;;2.60;1.00;;;;;;;19.60;42.62;97573.31;6179997;28;20587;-42
2022/05/28 11:42:15;;;;;;;26.83;12.00;;;;;;;19.03;45.14;97581.81;6180105;28;20236;-44
2022/05/28 11:45:25;;;;;;;2.97;1.57;;;;;;;18.59;45.28;97573.56;6178260;28;20228;-41
2022/05/28 11:52:38;;;;;;;4.10;1.73;;;;;;;18.50;46.16;97579.09;6173425;28;20249;-45
2022/05/28 11:55:43;;;;;;;2.10;1.17;;;;;;;18.29;46.19;97579.69;6176930;28;20233;-44
2022/05/28 11:58:50;;;;;;;4.17;1.83;;;;;;;18.23;47.33;97578.56;6179388;28;20225;-45
2022/05/28 12:01:59;;;;;;;4.40;1.80;;;;;;;18.14;46.82;97584.13;6174557;28;20233;-45
2022/05/28 12:05:02;;;;;;;5.33;2.33;;;;;;;18.33;46.20;97591.72;6180846;28;20244;-44
2022/05/28 12:08:07;;;;;;;3.50;1.73;;;;;;;18.43;47.12;97597.69;6180086;28;20735;-47
2022/05/28 12:11:30;;;;;;;3.10;1.50;;;;;;;18.30;46.54;97595.56;6180209;28;20233;-46
2022/05/28 12:14:36;;;;;;;4.37;1.50;;;;;;;18.25;46.62;97592.59;6178504;28;20244;-46
2022/05/28 12:17:41;;;;;;;3.37;1.50;;;;;;;18.11;45.75;97587.13;6176763;28;20221;-42
2022/05/28 12:20:58;;;;;;;3.00;1.20;;;;;;;17.35;45.03;97599.09;6178483;28;20311;-45
2022/05/28 12:24:07;;;;;;;4.03;1.30;;;;;;;16.83;46.61;97596.72;6173506;28;20226;-45
2022/05/28 12:27:22;;;;;;;1.93;1.20;;;;;;;16.89;46.64;97589.91;6180444;28;20237;-48
2022/05/28 12:30:29;;;;;;;2.57;1.20;;;;;;;16.75;45.88;97585.22;6176502;28;20229;-45
2022/05/28 12:33:34;;;;;;;2.03;1.10;;;;;;;16.43;46.96;97588.63;6176801;28;20237;-43
2022/05/28 12:36:49;;;;;;;3.03;1.23;;;;;;;16.14;48.32;97579.19;6177729;28;20260;-44
2022/05/28 12:40:09;;;;;;;3.57;1.23;;;;;;;16.32;48.17;97575.59;6177594;28;20323;-45
2022/05/28 12:43:37;;;;;;;2.73;1.20;;;;;;;16.39;48.41;97577.44;6178551;28;20245;-46
2022/05/28 12:46:45;;;;;;;3.73;1.40;;;;;;;16.21;48.86;97579.38;6173196;28;20582;-45
2022/05/28 12:49:52;;;;;;;1.67;1.20;;;;;;;15.96;49.07;97578.47;6175004;28;20282;-44
2022/05/28 12:53:16;;;;;;;2.87;1.40;;;;;;;15.85;50.26;97578.72;6179642;28;20692;-48
2022/05/28 12:56:33;;;;;;;6.47;3.37;;;;;;;15.65;50.18;97572.81;6180089;28;20758;-44
2022/05/28 12:59:38;;;;;;;2.73;1.80;;;;;;;15.76;50.77;97571.69;6179019;28;20244;-45
2022/05/28 13:02:46;;;;;;;2.50;1.40;;;;;;;15.94;51.70;97576.94;6162771;28;20236;-45
2022/05/28 13:05:53;;;;;;;4.83;1.30;;;;;;;16.05;50.60;97582.81;6179791;28;20240;-45
2022/05/28 13:09:07;;;;;;;3.40;1.20;;;;;;;15.81;51.02;97577.38;6179848;28;20241;-45
2022/05/28 13:12:12;;;;;;;3.23;1.20;;;;;;;15.68;53.03;97566.31;6176183;28;20307;-46
2022/05/28 13:15:33;;;;;;;3.33;1.30;;;;;;;15.56;53.15;97564.94;6175851;28;20217;-46
2022/05/28 13:19:01;;;;;;;9.10;2.20;;;;;;;15.69;53.38;97565.31;6167207;28;20234;-44
2022/05/28 13:22:26;;;;;;;7.10;1.60;;;;;;;16.02;52.06;97556.50;6170393;28;20236;-45
2022/05/28 13:25:52;;;;;;;105.57;73.97;;;;;;;16.41;52.31;97555.97;6174187;28;20610;-46
2022/05/28 13:29:01;;;;;;;24.20;17.17;;;;;;;16.95;52.37;97551.94;6170691;28;20592;-44
2022/05/28 13:32:33;;;;;;;22.07;15.37;;;;;;;17.97;48.92;97540.59;6172415;28;20233;-49
2022/05/28 13:35:48;;;;;;;5.33;3.73;;;;;;;18.57;45.58;97539.94;6167434;28;20224;-46
2022/05/28 13:38:52;;;;;;;7.77;4.40;;;;;;;19.21;44.04;97538.69;6152831;28;20221;-46
2022/05/28 13:41:56;;;;;;;2.93;2.03;;;;;;;20.87;40.94;97537.22;6170269;28;20577;-44
2022/05/28 13:44:59;;;;;;;3.13;1.50;;;;;;;21.30;38.24;97528.16;6164582;28;20727;-48
2022/05/28 13:48:08;;;;;;;5.47;2.67;;;;;;;20.93;39.30;97531.94;6168708;28;20745;-44
2022/05/28 13:51:12;;;;;;;45.60;26.53;;;;;;;20.76;42.99;97524.34;6169671;28;20221;-44
2022/05/28 13:54:14;;;;;;;17.67;8.63;;;;;;;20.36;43.86;97521.22;6169495;28;20221;-42
2022/05/28 13:57:16;;;;;;;8.23;3.90;;;;;;;20.09;45.05;97511.97;6167462;28;20213;-48
2022/05/28 14:00:27;;;;;;;5.37;3.00;;;;;;;20.09;44.60;97511.16;6168473;28;20237;-46
2022/05/28 14:03:32;;;;;;;15.27;11.30;;;;;;;19.56;42.40;97515.81;6170428;28;20271;-46
2022/05/28 14:06:40;;;;;;;11.63;4.93;;;;;;;19.31;42.37;97507.16;6151107;28;20308;-47
2022/05/28 14:09:44;;;;;;;5.53;2.80;;;;;;;19.64;42.37;97512.19;6169430;28;20727;-45
2022/05/28 14:12:50;;;;;;;6.70;3.40;;;;;;;21.03;40.45;97517.34;6169475;28;20596;-45
2022/05/28 14:15:54;;;;;;;3.07;1.20;;;;;;;20.82;39.70;97519.03;6172685;28;20335;-44
2022/05/28 14:18:58;;;;;;;2.50;1.17;;;;;;;20.80;38.93;97507.66;6170386;28;20229;-47
2022/05/28 14:22:05;;;;;;;48.40;33.07;;;;;;;20.54;40.53;97512.75;6165816;28;20307;-49
2022/05/28 14:25:14;;;;;;;7.50;3.57;;;;;;;19.90;40.17;97510.72;6169547;28;20237;-44
2022/05/28 14:28:32;;;;;;;31.37;20.13;;;;;;;19.77;41.31;97510.53;6166858;28;20230;-47
2022/05/28 14:31:34;;;;;;;3.47;1.70;;;;;;;20.83;37.57;97514.50;6169553;28;20233;-47
2022/05/28 14:34:40;;;;;;;3.10;2.30;;;;;;;24.24;32.17;97507.78;6167624;28;20719;-47
2022/05/28 14:37:42;;;;;;;38.23;23.70;;;;;;;28.84;26.89;97497.44;6172594;28;20302;-46
2022/05/28 14:40:52;;;;;;;6.73;2.23;;;;;;;30.62;21.16;97490.06;6175478;28;20221;-44
2022/05/28 14:43:55;;;;;;;8.50;5.57;;;;;;;32.62;20.84;97498.41;6166196;28;20240;-44
2022/05/28 14:46:58;;;;;;;10.67;6.60;;;;;;;33.88;18.00;97490.59;6170185;28;21082;-47
2022/05/28 14:50:07;;;;;;;13.83;9.47;;;;;;;28.75;23.08;97487.97;6172331;28;20229;-45
2022/05/28 14:53:33;;;;;;;2.40;1.37;;;;;;;24.37;29.27;97494.19;6164683;28;20588;-43
2022/05/28 14:56:36;;;;;;;7.63;4.80;;;;;;;23.03;32.29;97488.44;6172652;28;20233;-44
2022/05/28 14:59:41;;;;;;;3.03;1.40;;;;;;;21.86;33.42;97506.63;6171504;28;20763;-46
2022/05/28 15:02:43;;;;;;;2.07;1.10;;;;;;;21.04;34.81;97493.03;6171090;28;20253;-46
2022/05/28 15:05:46;;;;;;;1.73;0.90;;;;;;;20.67;37.55;97494.09;6175804;28;20233;-46
2022/05/28 15:08:51;;;;;;;1.30;0.80;;;;;;;20.35;39.64;97486.56;6179082;28;20245;-46
2022/05/28 15:12:05;;;;;;;18.13;10.37;;;;;;;19.95;40.96;97485.22;6180666;28;20244;-46
2022/05/28 15:15:09;;;;;;;3.37;1.90;;;;;;;19.50;40.75;97490.59;6177444;28;20229;-45
2022/05/28 15:18:11;;;;;;;3.30;1.20;;;;;;;20.09;40.38;97484.34;6177066;28;20217;-45
2022/05/28 15:21:14;;;;;;;1.40;0.70;;;;;;;21.64;37.79;97478.19;6180035;28;20217;-46
2022/05/28 15:24:17;;;;;;;3.00;1.30;;;;;;;24.11;31.04;97470.84;6179301;28;20257;-46
2022/05/28 15:27:21;;;;;;;3.67;1.60;;;;;;;22.78;32.79;97472.03;6178371;28;20289;-45
2022/05/28 15:30:24;;;;;;;2.40;0.90;;;;;;;21.55;35.33;97469.47;6173697;28;20582;-46
2022/05/28 15:33:27;;;;;;;2.57;1.20;;;;;;;20.47;36.22;97467.09;6180025;28;20229;-44
2022/05/28 15:39:56;;;;;;;1.40;1.00;;;;;;;19.31;39.96;97461.66;6180648;28;20222;-46
2022/05/28 15:42:58;;;;;;;0.77;0.70;;;;;;;19.10;41.11;97453.50;6174068;28;20230;-47
2022/05/28 15:46:00;;;;;;;2.03;0.93;;;;;;;18.98;43.06;97465.66;6181819;28;20283;-44
2022/05/28 15:49:06;;;;;;;1.33;0.67;;;;;;;18.80;43.92;97461.47;6170340;28;20243;-47